sensor_id;sensor_type;location;lat;lon;timestamp;P1;durP1;ratioP1;P2;durP2;ratioP2
25752;SDS011;13600;50.816;4.416;2023-02-04T00:02:01;27.38;;;16.83;;
25752;SDS011;13600;50.816;4.416;2023-02-04T00:04:27;28.80;;;16.92;;
25752;SDS011;13600;50.816;4.416;2023-02-04T00:06:52;34.80;;;17.20;;
25752;SDS011;13600;50.816;4.416;2023-02-04T00:09:18;30.63;;;18.15;;
25752;SDS011;13600;50.816;4.416;2023-02-04T00:11:44;31.17;;;16.92;;
25752;SDS011;13600;50.816;4.416;2023-02-04T00:14:09;34.45;;;17.50;;
25752;SDS011;13600;50.816;4.416;2023-02-04T00:16:35;34.47;;;18.77;;
25752;SDS011;13600;50.816;4.416;2023-02-04T00:19:02;30.88;;;16.48;;
25752;SDS011;13600;50.816;4.416;2023-02-04T00:21:27;30.75;;;16.55;;
25752;SDS011;13600;50.816;4.416;2023-02-04T00:23:53;27.40;;;16.65;;
25752;SDS011;13600;50.816;4.416;2023-02-04T00:26:19;29.60;;;16.30;;
25752;SDS011;13600;50.816;4.416;2023-02-04T00:28:45;32.03;;;16.90;;
25752;SDS011;13600;50.816;4.416;2023-02-04T00:31:11;30.85;;;17.58;;
25752;SDS011;13600;50.816;4.416;2023-02-04T00:33:36;29.52;;;15.98;;
25752;SDS011;13600;50.816;4.416;2023-02-04T00:36:02;30.08;;;16.38;;
25752;SDS011;13600;50.816;4.416;2023-02-04T00:38:28;26.85;;;15.38;;
25752;SDS011;13600;50.816;4.416;2023-02-04T00:40:53;30.60;;;14.88;;
25752;SDS011;13600;50.816;4.416;2023-02-04T00:43:19;33.63;;;15.10;;
25752;SDS011;13600;50.816;4.416;2023-02-04T00:45:45;25.45;;;15.23;;
25752;SDS011;13600;50.816;4.416;2023-02-04T00:48:11;27.33;;;14.85;;
25752;SDS011;13600;50.816;4.416;2023-02-04T00:50:37;29.42;;;14.95;;
25752;SDS011;13600;50.816;4.416;2023-02-04T00:53:04;31.02;;;15.45;;
25752;SDS011;13600;50.816;4.416;2023-02-04T00:55:30;25.70;;;15.55;;
25752;SDS011;13600;50.816;4.416;2023-02-04T00:57:56;21.92;;;15.23;;
25752;SDS011;13600;50.816;4.416;2023-02-04T01:00:23;29.60;;;15.32;;
25752;SDS011;13600;50.816;4.416;2023-02-04T01:02:49;28.40;;;15.00;;
25752;SDS011;13600;50.816;4.416;2023-02-04T01:05:14;29.80;;;15.38;;
25752;SDS011;13600;50.816;4.416;2023-02-04T01:07:40;36.50;;;15.13;;
25752;SDS011;13600;50.816;4.416;2023-02-04T01:10:06;26.88;;;14.25;;
25752;SDS011;13600;50.816;4.416;2023-02-04T01:12:31;23.85;;;14.95;;
25752;SDS011;13600;50.816;4.416;2023-02-04T01:14:57;28.10;;;15.65;;
25752;SDS011;13600;50.816;4.416;2023-02-04T01:17:24;28.65;;;15.35;;
25752;SDS011;13600;50.816;4.416;2023-02-04T01:19:51;28.77;;;16.52;;
25752;SDS011;13600;50.816;4.416;2023-02-04T01:22:16;27.75;;;16.40;;
25752;SDS011;13600;50.816;4.416;2023-02-04T01:24:43;29.35;;;16.50;;
25752;SDS011;13600;50.816;4.416;2023-02-04T01:27:08;28.23;;;17.40;;
25752;SDS011;13600;50.816;4.416;2023-02-04T01:29:35;29.92;;;17.83;;
25752;SDS011;13600;50.816;4.416;2023-02-04T01:32:01;30.33;;;17.95;;
25752;SDS011;13600;50.816;4.416;2023-02-04T01:34:32;32.00;;;18.40;;
25752;SDS011;13600;50.816;4.416;2023-02-04T01:36:58;31.00;;;19.63;;
25752;SDS011;13600;50.816;4.416;2023-02-04T01:39:23;31.30;;;19.38;;
25752;SDS011;13600;50.816;4.416;2023-02-04T01:41:49;38.40;;;19.13;;
25752;SDS011;13600;50.816;4.416;2023-02-04T01:44:16;33.42;;;19.88;;
25752;SDS011;13600;50.816;4.416;2023-02-04T01:46:43;34.58;;;19.77;;
25752;SDS011;13600;50.816;4.416;2023-02-04T01:49:08;36.10;;;21.00;;
25752;SDS011;13600;50.816;4.416;2023-02-04T01:51:35;34.47;;;21.00;;
25752;SDS011;13600;50.816;4.416;2023-02-04T01:54:01;34.25;;;21.80;;
25752;SDS011;13600;50.816;4.416;2023-02-04T01:56:28;33.05;;;21.42;;
25752;SDS011;13600;50.816;4.416;2023-02-04T01:58:55;39.75;;;22.85;;
25752;SDS011;13600;50.816;4.416;2023-02-04T02:01:41;39.25;;;23.58;;
25752;SDS011;13600;50.816;4.416;2023-02-04T02:04:12;43.47;;;23.27;;
25752;SDS011;13600;50.816;4.416;2023-02-04T02:06:51;38.15;;;24.40;;
25752;SDS011;13600;50.816;4.416;2023-02-04T02:09:19;38.63;;;22.92;;
25752;SDS011;13600;50.816;4.416;2023-02-04T02:11:45;41.10;;;23.63;;
25752;SDS011;13600;50.816;4.416;2023-02-04T02:14:11;38.80;;;24.20;;
25752;SDS011;13600;50.816;4.416;2023-02-04T02:16:37;40.92;;;22.20;;
25752;SDS011;13600;50.816;4.416;2023-02-04T02:19:03;34.38;;;22.27;;
25752;SDS011;13600;50.816;4.416;2023-02-04T02:21:37;43.78;;;23.27;;
25752;SDS011;13600;50.816;4.416;2023-02-04T02:24:23;40.08;;;21.77;;
25752;SDS011;13600;50.816;4.416;2023-02-04T02:26:51;36.97;;;22.05;;
25752;SDS011;13600;50.816;4.416;2023-02-04T02:29:18;42.42;;;24.10;;
25752;SDS011;13600;50.816;4.416;2023-02-04T02:31:45;36.80;;;23.33;;
25752;SDS011;13600;50.816;4.416;2023-02-04T02:34:11;40.67;;;24.17;;
25752;SDS011;13600;50.816;4.416;2023-02-04T02:36:36;42.35;;;23.95;;
25752;SDS011;13600;50.816;4.416;2023-02-04T02:39:02;43.83;;;23.67;;
25752;SDS011;13600;50.816;4.416;2023-02-04T02:41:28;40.67;;;23.35;;
25752;SDS011;13600;50.816;4.416;2023-02-04T02:43:54;42.00;;;24.63;;
25752;SDS011;13600;50.816;4.416;2023-02-04T02:46:20;36.72;;;23.65;;
25752;SDS011;13600;50.816;4.416;2023-02-04T02:48:45;34.40;;;21.92;;
25752;SDS011;13600;50.816;4.416;2023-02-04T02:51:11;35.30;;;21.58;;
25752;SDS011;13600;50.816;4.416;2023-02-04T02:53:36;35.88;;;22.42;;
25752;SDS011;13600;50.816;4.416;2023-02-04T02:56:02;41.50;;;23.17;;
25752;SDS011;13600;50.816;4.416;2023-02-04T02:58:30;30.92;;;20.92;;
25752;SDS011;13600;50.816;4.416;2023-02-04T03:01:00;34.63;;;20.63;;
25752;SDS011;13600;50.816;4.416;2023-02-04T03:03:29;32.63;;;21.05;;
25752;SDS011;13600;50.816;4.416;2023-02-04T03:06:08;31.70;;;19.60;;
25752;SDS011;13600;50.816;4.416;2023-02-04T03:08:41;30.67;;;18.00;;
25752;SDS011;13600;50.816;4.416;2023-02-04T03:11:08;30.15;;;19.60;;
25752;SDS011;13600;50.816;4.416;2023-02-04T03:13:34;32.05;;;19.85;;
25752;SDS011;13600;50.816;4.416;2023-02-04T03:16:01;32.05;;;18.95;;
25752;SDS011;13600;50.816;4.416;2023-02-04T03:18:28;31.25;;;18.33;;
25752;SDS011;13600;50.816;4.416;2023-02-04T03:20:55;33.08;;;19.40;;
25752;SDS011;13600;50.816;4.416;2023-02-04T03:23:21;31.38;;;18.98;;
25752;SDS011;13600;50.816;4.416;2023-02-04T03:25:47;28.77;;;18.30;;
25752;SDS011;13600;50.816;4.416;2023-02-04T03:28:13;33.97;;;19.30;;
25752;SDS011;13600;50.816;4.416;2023-02-04T03:30:39;29.88;;;18.83;;
25752;SDS011;13600;50.816;4.416;2023-02-04T03:33:04;28.17;;;18.88;;
25752;SDS011;13600;50.816;4.416;2023-02-04T03:35:30;29.60;;;17.98;;
25752;SDS011;13600;50.816;4.416;2023-02-04T03:37:55;24.88;;;17.35;;
25752;SDS011;13600;50.816;4.416;2023-02-04T03:40:21;29.67;;;19.67;;
25752;SDS011;13600;50.816;4.416;2023-02-04T03:42:47;28.88;;;20.08;;
25752;SDS011;13600;50.816;4.416;2023-02-04T03:45:12;30.70;;;20.70;;
25752;SDS011;13600;50.816;4.416;2023-02-04T03:47:39;32.65;;;19.63;;
25752;SDS011;13600;50.816;4.416;2023-02-04T03:50:05;27.83;;;18.45;;
25752;SDS011;13600;50.816;4.416;2023-02-04T03:52:31;26.35;;;17.30;;
25752;SDS011;13600;50.816;4.416;2023-02-04T03:54:56;27.33;;;18.27;;
25752;SDS011;13600;50.816;4.416;2023-02-04T03:57:23;27.65;;;18.13;;
25752;SDS011;13600;50.816;4.416;2023-02-04T03:59:49;30.33;;;18.30;;
25752;SDS011;13600;50.816;4.416;2023-02-04T04:02:14;29.65;;;18.60;;
25752;SDS011;13600;50.816;4.416;2023-02-04T04:04:41;27.27;;;18.15;;
25752;SDS011;13600;50.816;4.416;2023-02-04T04:07:06;26.67;;;17.95;;
25752;SDS011;13600;50.816;4.416;2023-02-04T04:09:32;29.90;;;18.00;;
25752;SDS011;13600;50.816;4.416;2023-02-04T04:11:58;24.77;;;15.15;;
25752;SDS011;13600;50.816;4.416;2023-02-04T04:14:23;22.73;;;14.48;;
25752;SDS011;13600;50.816;4.416;2023-02-04T04:16:49;20.70;;;12.70;;
25752;SDS011;13600;50.816;4.416;2023-02-04T04:19:15;20.25;;;13.00;;
25752;SDS011;13600;50.816;4.416;2023-02-04T04:21:41;20.20;;;11.88;;
25752;SDS011;13600;50.816;4.416;2023-02-04T04:24:06;19.60;;;11.10;;
25752;SDS011;13600;50.816;4.416;2023-02-04T04:26:32;17.75;;;11.07;;
25752;SDS011;13600;50.816;4.416;2023-02-04T04:28:58;18.90;;;10.75;;
25752;SDS011;13600;50.816;4.416;2023-02-04T04:31:23;17.13;;;11.57;;
25752;SDS011;13600;50.816;4.416;2023-02-04T04:33:49;16.50;;;10.60;;
25752;SDS011;13600;50.816;4.416;2023-02-04T04:36:15;14.18;;;9.82;;
25752;SDS011;13600;50.816;4.416;2023-02-04T04:38:40;16.63;;;10.30;;
25752;SDS011;13600;50.816;4.416;2023-02-04T04:41:06;14.65;;;9.25;;
25752;SDS011;13600;50.816;4.416;2023-02-04T04:43:31;15.68;;;10.32;;
25752;SDS011;13600;50.816;4.416;2023-02-04T04:45:57;13.68;;;9.50;;
25752;SDS011;13600;50.816;4.416;2023-02-04T04:48:23;13.70;;;9.57;;
25752;SDS011;13600;50.816;4.416;2023-02-04T04:50:49;15.43;;;9.35;;
25752;SDS011;13600;50.816;4.416;2023-02-04T04:53:15;13.95;;;9.35;;
25752;SDS011;13600;50.816;4.416;2023-02-04T04:55:40;14.13;;;9.80;;
25752;SDS011;13600;50.816;4.416;2023-02-04T04:58:06;14.57;;;9.85;;
25752;SDS011;13600;50.816;4.416;2023-02-04T05:00:32;15.48;;;10.48;;
25752;SDS011;13600;50.816;4.416;2023-02-04T05:02:58;18.02;;;11.05;;
25752;SDS011;13600;50.816;4.416;2023-02-04T05:05:24;17.38;;;11.18;;
25752;SDS011;13600;50.816;4.416;2023-02-04T05:07:49;15.02;;;10.43;;
25752;SDS011;13600;50.816;4.416;2023-02-04T05:10:15;15.75;;;10.43;;
25752;SDS011;13600;50.816;4.416;2023-02-04T05:12:41;18.52;;;11.68;;
25752;SDS011;13600;50.816;4.416;2023-02-04T05:15:07;18.70;;;11.05;;
25752;SDS011;13600;50.816;4.416;2023-02-04T05:17:33;18.25;;;11.07;;
25752;SDS011;13600;50.816;4.416;2023-02-04T05:19:58;19.08;;;11.40;;
25752;SDS011;13600;50.816;4.416;2023-02-04T05:22:27;18.08;;;11.25;;
25752;SDS011;13600;50.816;4.416;2023-02-04T05:24:52;18.33;;;11.38;;
25752;SDS011;13600;50.816;4.416;2023-02-04T05:27:18;16.90;;;11.10;;
25752;SDS011;13600;50.816;4.416;2023-02-04T05:29:45;17.90;;;11.57;;
25752;SDS011;13600;50.816;4.416;2023-02-04T05:32:10;19.60;;;11.98;;
25752;SDS011;13600;50.816;4.416;2023-02-04T05:34:36;18.33;;;12.05;;
25752;SDS011;13600;50.816;4.416;2023-02-04T05:37:02;19.27;;;12.23;;
25752;SDS011;13600;50.816;4.416;2023-02-04T05:39:27;20.48;;;11.38;;
25752;SDS011;13600;50.816;4.416;2023-02-04T05:41:53;18.13;;;11.70;;
25752;SDS011;13600;50.816;4.416;2023-02-04T05:44:19;17.33;;;11.40;;
25752;SDS011;13600;50.816;4.416;2023-02-04T05:46:44;18.02;;;10.65;;
25752;SDS011;13600;50.816;4.416;2023-02-04T05:49:10;16.45;;;10.18;;
25752;SDS011;13600;50.816;4.416;2023-02-04T05:51:36;16.83;;;11.23;;
25752;SDS011;13600;50.816;4.416;2023-02-04T05:54:02;18.45;;;12.18;;
25752;SDS011;13600;50.816;4.416;2023-02-04T05:56:27;19.88;;;12.68;;
25752;SDS011;13600;50.816;4.416;2023-02-04T05:58:54;19.23;;;12.00;;
25752;SDS011;13600;50.816;4.416;2023-02-04T06:01:20;19.17;;;12.50;;
25752;SDS011;13600;50.816;4.416;2023-02-04T06:03:46;20.83;;;12.65;;
25752;SDS011;13600;50.816;4.416;2023-02-04T06:06:11;20.55;;;12.90;;
25752;SDS011;13600;50.816;4.416;2023-02-04T06:08:37;19.88;;;12.43;;
25752;SDS011;13600;50.816;4.416;2023-02-04T06:11:08;29.75;;;13.93;;
25752;SDS011;13600;50.816;4.416;2023-02-04T06:13:34;20.70;;;13.57;;
25752;SDS011;13600;50.816;4.416;2023-02-04T06:15:59;21.48;;;13.88;;
25752;SDS011;13600;50.816;4.416;2023-02-04T06:18:25;21.02;;;14.13;;
25752;SDS011;13600;50.816;4.416;2023-02-04T06:20:51;23.05;;;14.27;;
25752;SDS011;13600;50.816;4.416;2023-02-04T06:23:17;24.25;;;14.65;;
25752;SDS011;13600;50.816;4.416;2023-02-04T06:25:43;23.15;;;14.43;;
25752;SDS011;13600;50.816;4.416;2023-02-04T06:28:08;25.50;;;15.13;;
25752;SDS011;13600;50.816;4.416;2023-02-04T06:30:35;26.20;;;15.77;;
25752;SDS011;13600;50.816;4.416;2023-02-04T06:33:01;24.63;;;15.75;;
25752;SDS011;13600;50.816;4.416;2023-02-04T06:35:27;27.88;;;16.60;;
25752;SDS011;13600;50.816;4.416;2023-02-04T06:37:52;29.55;;;16.95;;
25752;SDS011;13600;50.816;4.416;2023-02-04T06:40:18;31.15;;;16.75;;
25752;SDS011;13600;50.816;4.416;2023-02-04T06:42:43;31.33;;;17.73;;
25752;SDS011;13600;50.816;4.416;2023-02-04T06:45:09;32.10;;;17.42;;
25752;SDS011;13600;50.816;4.416;2023-02-04T06:47:35;32.05;;;17.25;;
25752;SDS011;13600;50.816;4.416;2023-02-04T06:50:01;32.33;;;17.38;;
25752;SDS011;13600;50.816;4.416;2023-02-04T06:52:27;30.77;;;17.83;;
25752;SDS011;13600;50.816;4.416;2023-02-04T06:54:53;31.98;;;17.95;;
25752;SDS011;13600;50.816;4.416;2023-02-04T06:57:19;33.97;;;18.00;;
25752;SDS011;13600;50.816;4.416;2023-02-04T06:59:45;34.58;;;18.60;;
25752;SDS011;13600;50.816;4.416;2023-02-04T07:02:11;34.72;;;18.45;;
25752;SDS011;13600;50.816;4.416;2023-02-04T07:04:36;32.40;;;16.83;;
25752;SDS011;13600;50.816;4.416;2023-02-04T07:07:02;33.28;;;17.88;;
25752;SDS011;13600;50.816;4.416;2023-02-04T07:09:28;32.53;;;18.02;;
25752;SDS011;13600;50.816;4.416;2023-02-04T07:11:53;31.85;;;17.38;;
25752;SDS011;13600;50.816;4.416;2023-02-04T07:14:20;30.40;;;17.70;;
25752;SDS011;13600;50.816;4.416;2023-02-04T07:16:46;33.17;;;18.25;;
25752;SDS011;13600;50.816;4.416;2023-02-04T07:19:12;29.15;;;16.20;;
25752;SDS011;13600;50.816;4.416;2023-02-04T07:21:38;30.48;;;16.92;;
25752;SDS011;13600;50.816;4.416;2023-02-04T07:24:03;32.55;;;16.90;;
25752;SDS011;13600;50.816;4.416;2023-02-04T07:26:29;35.92;;;18.67;;
25752;SDS011;13600;50.816;4.416;2023-02-04T07:28:55;36.95;;;19.48;;
25752;SDS011;13600;50.816;4.416;2023-02-04T07:31:20;34.33;;;18.17;;
25752;SDS011;13600;50.816;4.416;2023-02-04T07:33:46;36.67;;;19.75;;
25752;SDS011;13600;50.816;4.416;2023-02-04T07:36:11;38.92;;;20.17;;
25752;SDS011;13600;50.816;4.416;2023-02-04T07:38:37;40.97;;;20.05;;
25752;SDS011;13600;50.816;4.416;2023-02-04T07:41:03;44.53;;;19.80;;
25752;SDS011;13600;50.816;4.416;2023-02-04T07:43:28;38.25;;;18.80;;
25752;SDS011;13600;50.816;4.416;2023-02-04T07:45:54;37.95;;;19.33;;
25752;SDS011;13600;50.816;4.416;2023-02-04T07:48:19;37.42;;;19.27;;
25752;SDS011;13600;50.816;4.416;2023-02-04T07:50:45;40.88;;;18.33;;
25752;SDS011;13600;50.816;4.416;2023-02-04T07:53:11;35.05;;;18.02;;
25752;SDS011;13600;50.816;4.416;2023-02-04T07:55:36;32.85;;;15.95;;
25752;SDS011;13600;50.816;4.416;2023-02-04T07:58:04;33.92;;;17.13;;
25752;SDS011;13600;50.816;4.416;2023-02-04T08:00:30;36.70;;;15.70;;
25752;SDS011;13600;50.816;4.416;2023-02-04T08:02:55;30.77;;;14.80;;
25752;SDS011;13600;50.816;4.416;2023-02-04T08:05:21;27.70;;;14.40;;
25752;SDS011;13600;50.816;4.416;2023-02-04T08:07:46;28.88;;;13.88;;
25752;SDS011;13600;50.816;4.416;2023-02-04T08:10:12;26.70;;;14.23;;
25752;SDS011;13600;50.816;4.416;2023-02-04T08:12:38;29.85;;;13.77;;
25752;SDS011;13600;50.816;4.416;2023-02-04T08:15:04;29.30;;;13.65;;
25752;SDS011;13600;50.816;4.416;2023-02-04T08:17:32;23.75;;;13.65;;
25752;SDS011;13600;50.816;4.416;2023-02-04T08:19:57;24.65;;;13.48;;
25752;SDS011;13600;50.816;4.416;2023-02-04T08:22:23;30.23;;;15.38;;
25752;SDS011;13600;50.816;4.416;2023-02-04T08:24:49;29.13;;;14.95;;
25752;SDS011;13600;50.816;4.416;2023-02-04T08:27:14;30.08;;;14.18;;
25752;SDS011;13600;50.816;4.416;2023-02-04T08:29:40;32.25;;;16.27;;
25752;SDS011;13600;50.816;4.416;2023-02-04T08:32:05;41.45;;;21.58;;
25752;SDS011;13600;50.816;4.416;2023-02-04T08:34:31;25.75;;;13.02;;
25752;SDS011;13600;50.816;4.416;2023-02-04T08:36:56;22.88;;;12.35;;
25752;SDS011;13600;50.816;4.416;2023-02-04T08:39:22;21.08;;;11.60;;
25752;SDS011;13600;50.816;4.416;2023-02-04T08:41:48;19.10;;;11.30;;
25752;SDS011;13600;50.816;4.416;2023-02-04T08:44:16;17.17;;;9.77;;
25752;SDS011;13600;50.816;4.416;2023-02-04T08:46:42;19.98;;;10.73;;
25752;SDS011;13600;50.816;4.416;2023-02-04T08:49:08;22.15;;;11.95;;
25752;SDS011;13600;50.816;4.416;2023-02-04T08:51:34;24.20;;;10.75;;
25752;SDS011;13600;50.816;4.416;2023-02-04T08:54:00;54.15;;;28.98;;
25752;SDS011;13600;50.816;4.416;2023-02-04T08:56:26;33.60;;;16.17;;
25752;SDS011;13600;50.816;4.416;2023-02-04T08:58:52;25.23;;;13.98;;
25752;SDS011;13600;50.816;4.416;2023-02-04T09:01:18;23.58;;;12.18;;
25752;SDS011;13600;50.816;4.416;2023-02-04T09:03:44;27.48;;;13.57;;
25752;SDS011;13600;50.816;4.416;2023-02-04T09:06:09;25.33;;;13.18;;
25752;SDS011;13600;50.816;4.416;2023-02-04T09:08:35;24.52;;;12.23;;
25752;SDS011;13600;50.816;4.416;2023-02-04T09:11:01;29.60;;;12.20;;
25752;SDS011;13600;50.816;4.416;2023-02-04T09:13:28;26.73;;;12.63;;
25752;SDS011;13600;50.816;4.416;2023-02-04T09:15:54;25.23;;;11.10;;
25752;SDS011;13600;50.816;4.416;2023-02-04T09:18:19;14.82;;;7.85;;
25752;SDS011;13600;50.816;4.416;2023-02-04T09:20:48;11.57;;;5.82;;
25752;SDS011;13600;50.816;4.416;2023-02-04T09:23:13;12.10;;;4.53;;
25752;SDS011;13600;50.816;4.416;2023-02-04T09:25:40;8.93;;;4.05;;
25752;SDS011;13600;50.816;4.416;2023-02-04T09:28:07;8.20;;;3.25;;
25752;SDS011;13600;50.816;4.416;2023-02-04T09:30:39;9.38;;;3.53;;
25752;SDS011;13600;50.816;4.416;2023-02-04T09:33:06;7.15;;;2.72;;
25752;SDS011;13600;50.816;4.416;2023-02-04T09:35:33;6.88;;;2.30;;
25752;SDS011;13600;50.816;4.416;2023-02-04T09:38:00;10.88;;;2.88;;
25752;SDS011;13600;50.816;4.416;2023-02-04T09:40:26;7.57;;;2.65;;
25752;SDS011;13600;50.816;4.416;2023-02-04T09:42:54;9.43;;;2.60;;
25752;SDS011;13600;50.816;4.416;2023-02-04T09:45:26;11.80;;;3.10;;
25752;SDS011;13600;50.816;4.416;2023-02-04T09:47:54;6.93;;;2.38;;
25752;SDS011;13600;50.816;4.416;2023-02-04T09:50:22;8.10;;;2.13;;
25752;SDS011;13600;50.816;4.416;2023-02-04T09:52:50;11.70;;;2.60;;
25752;SDS011;13600;50.816;4.416;2023-02-04T09:55:18;7.85;;;2.17;;
25752;SDS011;13600;50.816;4.416;2023-02-04T09:57:46;7.25;;;2.20;;
25752;SDS011;13600;50.816;4.416;2023-02-04T10:00:19;7.95;;;2.20;;
25752;SDS011;13600;50.816;4.416;2023-02-04T10:02:47;7.20;;;2.38;;
25752;SDS011;13600;50.816;4.416;2023-02-04T10:05:17;8.85;;;2.85;;
25752;SDS011;13600;50.816;4.416;2023-02-04T10:07:48;8.38;;;2.60;;
25752;SDS011;13600;50.816;4.416;2023-02-04T10:10:18;9.77;;;3.78;;
25752;SDS011;13600;50.816;4.416;2023-02-04T10:12:48;10.48;;;3.30;;
25752;SDS011;13600;50.816;4.416;2023-02-04T10:15:15;4.95;;;1.83;;
25752;SDS011;13600;50.816;4.416;2023-02-04T10:17:44;4.25;;;1.75;;
25752;SDS011;13600;50.816;4.416;2023-02-04T10:20:15;5.82;;;2.00;;
25752;SDS011;13600;50.816;4.416;2023-02-04T10:22:41;3.90;;;1.85;;
25752;SDS011;13600;50.816;4.416;2023-02-04T10:25:11;7.65;;;2.22;;
25752;SDS011;13600;50.816;4.416;2023-02-04T10:30:20;4.22;;;2.03;;
25752;SDS011;13600;50.816;4.416;2023-02-04T10:32:48;4.57;;;2.10;;
25752;SDS011;13600;50.816;4.416;2023-02-04T10:35:17;6.35;;;2.08;;
25752;SDS011;13600;50.816;4.416;2023-02-04T10:37:44;3.33;;;2.20;;
25752;SDS011;13600;50.816;4.416;2023-02-04T10:42:55;5.97;;;2.70;;
25752;SDS011;13600;50.816;4.416;2023-02-04T10:45:22;3.55;;;2.20;;
25752;SDS011;13600;50.816;4.416;2023-02-04T10:47:56;2.95;;;2.13;;
25752;SDS011;13600;50.816;4.416;2023-02-04T10:50:23;5.35;;;2.53;;
25752;SDS011;13600;50.816;4.416;2023-02-04T10:52:51;3.00;;;2.25;;
25752;SDS011;13600;50.816;4.416;2023-02-04T10:55:43;6.75;;;3.13;;
25752;SDS011;13600;50.816;4.416;2023-02-04T10:58:11;12.32;;;4.55;;
25752;SDS011;13600;50.816;4.416;2023-02-04T11:00:39;5.55;;;3.20;;
25752;SDS011;13600;50.816;4.416;2023-02-04T11:05:55;5.90;;;3.28;;
25752;SDS011;13600;50.816;4.416;2023-02-04T11:08:23;5.50;;;3.33;;
25752;SDS011;13600;50.816;4.416;2023-02-04T11:10:55;5.78;;;3.45;;
25752;SDS011;13600;50.816;4.416;2023-02-04T11:13:37;24.13;;;9.00;;
25752;SDS011;13600;50.816;4.416;2023-02-04T11:24:36;8.07;;;5.13;;
25752;SDS011;13600;50.816;4.416;2023-02-04T11:32:25;8.27;;;6.53;;
25752;SDS011;13600;50.816;4.416;2023-02-04T11:37:40;9.85;;;6.75;;
25752;SDS011;13600;50.816;4.416;2023-02-04T11:40:40;14.60;;;7.90;;
25752;SDS011;13600;50.816;4.416;2023-02-04T11:45:27;8.43;;;6.13;;
25752;SDS011;13600;50.816;4.416;2023-02-04T11:47:56;7.78;;;6.75;;
25752;SDS011;13600;50.816;4.416;2023-02-04T11:50:26;11.57;;;7.22;;
25752;SDS011;13600;50.816;4.416;2023-02-04T11:52:59;10.27;;;7.85;;
25752;SDS011;13600;50.816;4.416;2023-02-04T11:55:26;11.70;;;8.23;;
25752;SDS011;13600;50.816;4.416;2023-02-04T11:57:54;11.60;;;8.38;;
25752;SDS011;13600;50.816;4.416;2023-02-04T12:00:25;12.85;;;8.50;;
25752;SDS011;13600;50.816;4.416;2023-02-04T12:02:54;16.52;;;8.93;;
25752;SDS011;13600;50.816;4.416;2023-02-04T12:05:49;11.38;;;9.38;;
25752;SDS011;13600;50.816;4.416;2023-02-04T12:11:32;12.45;;;7.90;;
25752;SDS011;13600;50.816;4.416;2023-02-04T12:13:55;11.68;;;8.57;;
25752;SDS011;13600;50.816;4.416;2023-02-04T12:16:23;12.13;;;8.27;;
25752;SDS011;13600;50.816;4.416;2023-02-04T12:18:49;12.82;;;8.77;;
25752;SDS011;13600;50.816;4.416;2023-02-04T12:21:15;16.17;;;10.02;;
25752;SDS011;13600;50.816;4.416;2023-02-04T12:23:42;11.90;;;8.82;;
25752;SDS011;13600;50.816;4.416;2023-02-04T12:26:08;12.48;;;9.32;;
25752;SDS011;13600;50.816;4.416;2023-02-04T12:28:35;11.77;;;9.35;;
25752;SDS011;13600;50.816;4.416;2023-02-04T12:31:00;14.80;;;9.93;;
25752;SDS011;13600;50.816;4.416;2023-02-04T12:33:26;16.80;;;9.88;;
25752;SDS011;13600;50.816;4.416;2023-02-04T12:35:52;14.23;;;9.90;;
25752;SDS011;13600;50.816;4.416;2023-02-04T12:38:18;18.05;;;9.57;;
25752;SDS011;13600;50.816;4.416;2023-02-04T12:40:44;14.20;;;8.60;;
25752;SDS011;13600;50.816;4.416;2023-02-04T12:43:09;15.95;;;9.68;;
25752;SDS011;13600;50.816;4.416;2023-02-04T12:45:35;15.07;;;9.45;;
25752;SDS011;13600;50.816;4.416;2023-02-04T12:48:01;15.65;;;9.02;;
25752;SDS011;13600;50.816;4.416;2023-02-04T12:50:28;16.25;;;9.65;;
25752;SDS011;13600;50.816;4.416;2023-02-04T12:52:55;17.17;;;9.55;;
25752;SDS011;13600;50.816;4.416;2023-02-04T12:55:22;17.92;;;9.73;;
25752;SDS011;13600;50.816;4.416;2023-02-04T12:57:49;17.83;;;9.23;;
25752;SDS011;13600;50.816;4.416;2023-02-04T13:00:15;16.73;;;9.20;;
25752;SDS011;13600;50.816;4.416;2023-02-04T13:02:44;13.80;;;8.98;;
25752;SDS011;13600;50.816;4.416;2023-02-04T13:05:10;15.48;;;9.07;;
25752;SDS011;13600;50.816;4.416;2023-02-04T13:07:36;16.25;;;9.30;;
25752;SDS011;13600;50.816;4.416;2023-02-04T13:10:04;17.48;;;9.70;;
25752;SDS011;13600;50.816;4.416;2023-02-04T13:12:30;17.42;;;9.38;;
25752;SDS011;13600;50.816;4.416;2023-02-04T13:14:56;17.35;;;10.13;;
25752;SDS011;13600;50.816;4.416;2023-02-04T13:17:21;18.80;;;10.02;;
25752;SDS011;13600;50.816;4.416;2023-02-04T13:19:47;23.33;;;10.45;;
25752;SDS011;13600;50.816;4.416;2023-02-04T13:22:13;19.33;;;10.02;;
25752;SDS011;13600;50.816;4.416;2023-02-04T13:24:38;18.73;;;10.32;;
25752;SDS011;13600;50.816;4.416;2023-02-04T13:27:04;17.73;;;9.80;;
25752;SDS011;13600;50.816;4.416;2023-02-04T13:29:30;16.30;;;10.10;;
25752;SDS011;13600;50.816;4.416;2023-02-04T13:31:55;19.83;;;10.50;;
25752;SDS011;13600;50.816;4.416;2023-02-04T13:34:21;21.25;;;10.75;;
25752;SDS011;13600;50.816;4.416;2023-02-04T13:36:46;20.10;;;11.98;;
25752;SDS011;13600;50.816;4.416;2023-02-04T13:39:12;21.20;;;11.73;;
25752;SDS011;13600;50.816;4.416;2023-02-04T13:41:38;21.42;;;11.60;;
25752;SDS011;13600;50.816;4.416;2023-02-04T13:44:04;22.95;;;12.95;;
25752;SDS011;13600;50.816;4.416;2023-02-04T13:46:30;19.35;;;11.70;;
25752;SDS011;13600;50.816;4.416;2023-02-04T13:48:57;21.88;;;12.57;;
25752;SDS011;13600;50.816;4.416;2023-02-04T13:51:23;24.02;;;12.82;;
25752;SDS011;13600;50.816;4.416;2023-02-04T13:53:48;21.77;;;12.52;;
25752;SDS011;13600;50.816;4.416;2023-02-04T13:56:14;25.10;;;12.93;;
25752;SDS011;13600;50.816;4.416;2023-02-04T13:58:39;24.25;;;13.00;;
25752;SDS011;13600;50.816;4.416;2023-02-04T14:01:11;27.42;;;12.68;;
25752;SDS011;13600;50.816;4.416;2023-02-04T14:03:38;25.80;;;12.90;;
25752;SDS011;13600;50.816;4.416;2023-02-04T14:06:04;24.65;;;13.18;;
25752;SDS011;13600;50.816;4.416;2023-02-04T14:08:30;21.95;;;13.50;;
25752;SDS011;13600;50.816;4.416;2023-02-04T14:10:56;23.40;;;13.80;;
25752;SDS011;13600;50.816;4.416;2023-02-04T14:13:21;23.67;;;13.40;;
25752;SDS011;13600;50.816;4.416;2023-02-04T14:15:47;25.23;;;15.00;;
25752;SDS011;13600;50.816;4.416;2023-02-04T14:18:14;23.90;;;14.55;;
25752;SDS011;13600;50.816;4.416;2023-02-04T14:20:40;25.63;;;16.27;;
25752;SDS011;13600;50.816;4.416;2023-02-04T14:23:06;27.25;;;16.45;;
25752;SDS011;13600;50.816;4.416;2023-02-04T14:25:32;32.00;;;17.38;;
25752;SDS011;13600;50.816;4.416;2023-02-04T14:27:57;33.10;;;18.55;;
25752;SDS011;13600;50.816;4.416;2023-02-04T14:30:25;31.00;;;17.90;;
25752;SDS011;13600;50.816;4.416;2023-02-04T14:32:52;32.08;;;18.00;;
25752;SDS011;13600;50.816;4.416;2023-02-04T14:35:18;31.20;;;18.33;;
25752;SDS011;13600;50.816;4.416;2023-02-04T14:37:44;38.78;;;22.65;;
25752;SDS011;13600;50.816;4.416;2023-02-04T14:40:10;47.40;;;28.23;;
25752;SDS011;13600;50.816;4.416;2023-02-04T14:42:37;48.30;;;28.40;;
25752;SDS011;13600;50.816;4.416;2023-02-04T14:45:03;44.20;;;29.30;;
25752;SDS011;13600;50.816;4.416;2023-02-04T14:47:36;53.30;;;30.45;;
25752;SDS011;13600;50.816;4.416;2023-02-04T14:50:04;43.85;;;27.75;;
25752;SDS011;13600;50.816;4.416;2023-02-04T14:52:30;49.40;;;29.55;;
25752;SDS011;13600;50.816;4.416;2023-02-04T14:54:56;48.55;;;29.52;;